createdAt,value
2022-10-02T00:00:46.503Z,70.84
2022-10-02T00:03:49.992Z,70.76
2022-10-02T00:06:53.694Z,71.03
2022-10-02T00:09:59.955Z,71.20
2022-10-02T00:13:03.713Z,71.05
2022-10-02T00:16:10.810Z,71.05
2022-10-02T00:19:15.566Z,71.20
2022-10-02T00:22:31.070Z,71.49
2022-10-02T00:25:37.905Z,71.54
2022-10-02T00:29:00.378Z,71.46
2022-10-02T00:32:05.240Z,71.76
2022-10-02T00:35:28.528Z,72.08
2022-10-02T00:38:36.608Z,72.14
2022-10-02T00:42:00.373Z,72.16
2022-10-02T00:45:03.470Z,72.33
2022-10-02T00:48:11.612Z,71.66
2022-10-02T00:51:31.693Z,71.83
2022-10-02T00:54:43.187Z,71.82
2022-10-02T00:57:47.960Z,71.88
2022-10-02T01:01:03.432Z,71.93
2022-10-02T01:04:08.648Z,72.05
2022-10-02T01:07:11.636Z,72.25
2022-10-02T01:10:14.978Z,72.62
2022-10-02T01:13:17.424Z,73.03
2022-10-02T01:16:19.698Z,73.27
2022-10-02T01:19:42.265Z,73.53
2022-10-02T01:22:46.957Z,73.79
2022-10-02T01:25:49.266Z,74.04
2022-10-02T01:28:51.293Z,74.32
2022-10-02T01:31:53.805Z,74.38
2022-10-02T01:34:56.557Z,74.69
2022-10-02T01:38:00.112Z,74.81
2022-10-02T01:41:02.166Z,75.03
2022-10-02T01:44:04.422Z,75.07
2022-10-02T01:47:09.579Z,75.01
2022-10-02T01:50:24.308Z,75.15
2022-10-02T01:53:34.044Z,75.02
2022-10-02T01:56:59.699Z,75.22
2022-10-02T02:00:01.669Z,75.23
2022-10-02T02:03:16.786Z,75.57
2022-10-02T02:06:26.569Z,75.65
2022-10-02T02:09:36.674Z,75.80
2022-10-02T02:12:42.333Z,76.01
2022-10-02T02:15:49.780Z,76.08
2022-10-02T02:19:00.931Z,76.35
2022-10-02T02:22:07.819Z,76.49
2022-10-02T02:25:14.095Z,76.85
2022-10-02T02:28:18.948Z,77.08
2022-10-02T02:31:24.084Z,77.14
2022-10-02T02:34:32.730Z,77.20
2022-10-02T02:37:37.147Z,77.46
2022-10-02T02:40:42.036Z,77.73
2022-10-02T02:43:47.286Z,77.08
2022-10-02T02:47:03.794Z,77.58
2022-10-02T02:50:12.167Z,77.72
2022-10-02T02:53:17.885Z,77.56
2022-10-02T02:56:21.084Z,77.60
2022-10-02T02:59:26.306Z,77.76
2022-10-02T03:02:28.637Z,77.75
2022-10-02T03:05:31.026Z,77.74
2022-10-02T03:08:36.570Z,77.95
2022-10-02T03:11:57.454Z,77.99
2022-10-02T03:15:29.383Z,78.04
2022-10-02T03:18:50.133Z,78.28
2022-10-02T03:22:09.681Z,78.32
2022-10-02T03:25:14.540Z,78.27
2022-10-02T03:28:43.569Z,78.44
2022-10-02T03:31:43.942Z,78.32
2022-10-02T03:34:47.921Z,78.51
2022-10-02T03:37:52.078Z,78.65
2022-10-02T03:40:58.023Z,77.91
2022-10-02T03:44:00.188Z,77.94
2022-10-02T03:47:02.446Z,78.18
2022-10-02T03:50:04.776Z,77.69
2022-10-02T03:53:15.825Z,78.01
2022-10-02T03:56:37.048Z,78.27
2022-10-02T03:59:48.870Z,78.08
2022-10-02T04:03:00.185Z,78.14
2022-10-02T04:06:06.012Z,77.82
2022-10-02T04:09:13.900Z,78.21
2022-10-02T04:12:20.898Z,77.73
2022-10-02T04:15:30.486Z,78.19
2022-10-02T04:18:36.236Z,78.31
2022-10-02T04:21:58.547Z,78.14
2022-10-02T04:25:00.778Z,78.17
2022-10-02T04:28:05.931Z,78.21
2022-10-02T04:31:10.543Z,78.02
2022-10-02T04:34:13.443Z,76.96
2022-10-02T04:37:37.367Z,77.02
2022-10-02T04:40:39.370Z,77.30
2022-10-02T04:43:50.825Z,77.40
2022-10-02T04:47:20.107Z,77.36
2022-10-02T04:50:22.422Z,77.28
2022-10-02T04:53:41.002Z,77.40
2022-10-02T04:56:55.481Z,77.21
2022-10-02T04:59:59.022Z,77.65
2022-10-02T05:03:22.945Z,77.70
2022-10-02T05:06:24.913Z,77.91
2022-10-02T05:09:37.499Z,77.82
2022-10-02T05:13:17.851Z,77.92
2022-10-02T05:16:38.834Z,77.89
2022-10-02T05:20:18.866Z,77.92
2022-10-02T05:23:23.943Z,78.01
2022-10-02T05:26:38.322Z,77.80
2022-10-02T05:29:58.001Z,77.76
2022-10-02T05:32:59.960Z,77.70
2022-10-02T05:36:27.267Z,77.33
2022-10-02T05:39:33.753Z,76.87
2022-10-02T05:42:42.873Z,76.58
2022-10-02T05:45:54.653Z,76.36
2022-10-02T05:48:56.881Z,76.10
2022-10-02T05:52:18.688Z,75.60
2022-10-02T05:55:39.788Z,75.23
2022-10-02T05:58:45.170Z,75.11
2022-10-02T06:01:49.413Z,74.75
2022-10-02T06:04:57.432Z,74.28
2022-10-02T06:08:02.618Z,74.01
2022-10-02T06:11:31.138Z,73.97
2022-10-02T06:14:52.372Z,73.42
2022-10-02T06:18:06.234Z,73.37
2022-10-02T06:21:16.583Z,73.12
2022-10-02T06:24:22.573Z,72.63
2022-10-02T06:27:33.516Z,72.40
2022-10-02T06:30:41.830Z,71.79
2022-10-02T06:33:43.939Z,71.25
2022-10-02T06:37:05.708Z,70.43
2022-10-02T06:40:22.020Z,70.41
2022-10-02T06:43:35.667Z,69.47
2022-10-02T06:47:07.770Z,68.83
2022-10-02T06:50:28.990Z,68.70
2022-10-02T06:53:45.426Z,68.01
2022-10-02T06:57:03.063Z,67.86
2022-10-02T07:00:12.338Z,66.97
2022-10-02T07:03:27.516Z,66.15
2022-10-02T07:06:40.293Z,64.76
2022-10-02T07:09:57.032Z,64.29
2022-10-02T07:13:13.176Z,63.35
2022-10-02T07:16:24.537Z,62.74
2022-10-02T07:19:32.325Z,61.95
2022-10-02T07:22:55.043Z,60.58
2022-10-02T07:26:05.215Z,60.38
2022-10-02T07:29:10.270Z,60.50
2022-10-02T07:32:31.064Z,59.00
2022-10-02T07:35:33.429Z,57.31
2022-10-02T07:38:48.054Z,56.57
2022-10-02T07:42:04.137Z,52.39
2022-10-02T07:45:06.142Z,43.16
2022-10-02T07:48:14.516Z,36.43
2022-10-02T07:51:41.818Z,32.18
2022-10-02T07:54:59.229Z,29.55
2022-10-02T07:58:12.871Z,27.11
2022-10-02T08:01:18.330Z,24.36
2022-10-02T08:04:26.841Z,23.54
2022-10-02T08:07:29.551Z,23.52
2022-10-02T08:10:35.047Z,22.10
2022-10-02T08:14:00.031Z,21.24
2022-10-02T08:17:06.963Z,20.58
2022-10-02T08:20:29.630Z,20.74
2022-10-02T08:23:55.000Z,20.34
2022-10-02T08:27:13.561Z,19.65
2022-10-02T08:30:16.023Z,18.66
2022-10-02T08:33:20.055Z,19.17
2022-10-02T08:36:31.566Z,20.77
2022-10-02T08:39:33.517Z,23.01
2022-10-02T08:42:45.580Z,25.45
2022-10-02T08:45:50.349Z,27.90
2022-10-02T08:48:54.888Z,29.08
2022-10-02T08:52:12.440Z,29.87
2022-10-02T08:55:33.204Z,31.21
2022-10-02T08:58:57.880Z,31.55
2022-10-02T09:02:19.848Z,32.01
2022-10-02T09:05:39.597Z,31.96
2022-10-02T09:08:47.912Z,31.97
2022-10-02T09:11:50.377Z,32.39
2022-10-02T09:14:58.764Z,32.63
2022-10-02T09:18:17.156Z,33.00
2022-10-02T09:21:27.352Z,33.28
2022-10-02T09:24:48.069Z,33.40
2022-10-02T09:28:04.877Z,33.17
2022-10-02T09:31:15.331Z,33.49
2022-10-02T09:34:32.514Z,33.37
2022-10-02T09:37:37.488Z,33.31
2022-10-02T09:41:02.859Z,32.00
2022-10-02T09:44:23.990Z,31.45
2022-10-02T09:48:04.941Z,30.48
2022-10-02T09:51:29.178Z,30.92
2022-10-02T09:54:49.755Z,31.24
2022-10-02T09:58:08.627Z,31.54
2022-10-02T10:01:23.182Z,32.47
2022-10-02T10:05:05.046Z,32.40
2022-10-02T10:08:16.827Z,32.85
2022-10-02T10:11:21.303Z,32.75
2022-10-02T10:14:37.259Z,32.93
2022-10-02T10:18:01.766Z,33.80
2022-10-02T10:21:13.047Z,34.03
2022-10-02T10:24:31.055Z,33.97
2022-10-02T10:28:01.801Z,34.17
2022-10-02T10:31:21.897Z,34.87
2022-10-02T10:34:38.569Z,34.36
2022-10-02T10:38:09.010Z,35.00
2022-10-02T10:41:29.802Z,34.77
2022-10-02T10:44:38.004Z,34.59
2022-10-02T10:47:47.544Z,34.40
2022-10-02T10:51:14.361Z,35.39
2022-10-02T10:54:28.671Z,35.82
2022-10-02T10:57:52.049Z,36.55
2022-10-02T11:01:14.228Z,36.82
2022-10-02T11:04:16.591Z,37.26
2022-10-02T11:07:44.450Z,37.92
2022-10-02T11:11:07.902Z,38.22
2022-10-02T11:14:24.063Z,38.98
2022-10-02T11:17:41.936Z,39.14
2022-10-02T11:20:50.614Z,39.56
2022-10-02T11:24:16.298Z,39.82
2022-10-02T11:27:21.022Z,39.67
2022-10-02T11:30:26.228Z,39.84
2022-10-02T11:33:40.341Z,40.34
2022-10-02T11:36:45.590Z,40.22
2022-10-02T11:40:14.349Z,39.48
2022-10-02T11:43:35.400Z,38.40
2022-10-02T11:46:48.604Z,37.41
2022-10-02T11:50:10.352Z,36.95
2022-10-02T11:53:34.529Z,36.87
2022-10-02T11:56:43.031Z,36.55
2022-10-02T12:00:08.355Z,36.16
2022-10-02T12:03:14.698Z,36.67
2022-10-02T12:06:29.367Z,36.47
2022-10-02T12:09:43.801Z,36.90
2022-10-02T12:12:52.075Z,37.40
2022-10-02T12:16:13.379Z,38.19
2022-10-02T12:19:18.940Z,38.31
2022-10-02T12:22:53.012Z,37.52
2022-10-02T12:26:13.733Z,38.84
2022-10-02T12:29:26.452Z,38.78
2022-10-02T12:32:32.822Z,38.82
2022-10-02T12:35:46.901Z,38.90
2022-10-02T12:39:09.467Z,39.76
2022-10-02T12:42:21.410Z,40.42
2022-10-02T12:45:23.989Z,41.49
2022-10-02T12:48:38.557Z,43.58
2022-10-02T12:51:55.828Z,44.93
2022-10-02T12:55:13.246Z,45.38
2022-10-02T12:58:28.520Z,45.59
2022-10-02T13:01:39.979Z,46.23
2022-10-02T13:05:06.018Z,46.50
2022-10-02T13:08:26.554Z,47.46
2022-10-02T13:11:34.480Z,48.34
2022-10-02T13:14:47.739Z,49.09
2022-10-02T13:17:53.330Z,49.09
2022-10-02T13:21:04.269Z,49.62
2022-10-02T13:24:07.402Z,50.28
2022-10-02T13:27:31.504Z,49.84
2022-10-02T13:30:38.161Z,49.35
2022-10-02T13:33:40.264Z,49.51
2022-10-02T13:36:43.830Z,49.73
2022-10-02T13:39:47.339Z,50.25
2022-10-02T13:42:52.243Z,50.55
2022-10-02T13:46:00.171Z,51.18
2022-10-02T13:49:14.597Z,51.56
2022-10-02T13:52:25.629Z,51.94
2022-10-02T13:55:29.356Z,52.15
2022-10-02T13:58:34.469Z,53.28
2022-10-02T14:01:53.182Z,53.98
2022-10-02T14:04:55.500Z,54.33
2022-10-02T14:08:15.683Z,54.18
2022-10-02T14:11:21.060Z,54.20
2022-10-02T14:14:35.926Z,54.30
2022-10-02T14:17:43.743Z,55.06
2022-10-02T14:21:10.041Z,55.35
2022-10-02T14:24:12.261Z,54.96
2022-10-02T14:27:23.117Z,54.70
2022-10-02T14:30:34.160Z,55.23
2022-10-02T14:33:39.259Z,55.56
2022-10-02T14:36:48.010Z,55.64
2022-10-02T14:39:50.836Z,55.77
2022-10-02T14:42:54.209Z,55.52
2022-10-02T14:46:00.120Z,55.52
2022-10-02T14:49:03.076Z,55.39
2022-10-02T14:52:22.702Z,55.54
2022-10-02T14:55:29.869Z,55.49
2022-10-02T14:58:34.652Z,55.44
2022-10-02T15:01:53.895Z,55.76
2022-10-02T15:05:03.577Z,56.02
2022-10-02T15:08:15.698Z,56.46
2022-10-02T15:11:20.859Z,56.89
2022-10-02T15:14:26.802Z,57.07
2022-10-02T15:17:56.847Z,57.17
2022-10-02T15:21:18.014Z,57.83
2022-10-02T15:24:35.182Z,58.22
2022-10-02T15:28:08.158Z,58.62
2022-10-02T15:31:23.183Z,59.21
2022-10-02T15:34:35.403Z,59.52
2022-10-02T15:37:49.657Z,59.59
2022-10-02T15:40:54.995Z,59.97
2022-10-02T15:44:06.762Z,60.52
2022-10-02T15:47:17.667Z,61.04
2022-10-02T15:50:19.693Z,61.04
2022-10-02T15:53:24.928Z,61.12
2022-10-02T15:56:44.967Z,62.03
2022-10-02T16:00:00.641Z,62.39
2022-10-02T16:03:15.795Z,62.70
2022-10-02T16:06:24.272Z,62.94
2022-10-02T16:09:38.632Z,63.30
2022-10-02T16:13:05.558Z,63.37
2022-10-02T16:16:13.359Z,63.58
2022-10-02T16:19:23.083Z,63.67
2022-10-02T16:22:43.844Z,64.53
2022-10-02T16:26:04.667Z,64.92
2022-10-02T16:29:26.872Z,65.29
2022-10-02T16:32:48.934Z,65.49
2022-10-02T16:36:10.983Z,65.68
2022-10-02T16:39:25.807Z,65.88
2022-10-02T16:42:30.727Z,65.87
2022-10-02T16:45:35.332Z,65.89
2022-10-02T16:48:40.434Z,66.15
2022-10-02T16:51:51.373Z,66.17
2022-10-02T16:54:58.975Z,66.19
2022-10-02T16:58:09.492Z,66.23
2022-10-02T17:01:30.938Z,66.21
2022-10-02T17:04:39.216Z,66.11
2022-10-02T17:07:53.376Z,66.10
2022-10-02T17:11:03.982Z,66.02
2022-10-02T17:14:12.188Z,66.04
2022-10-02T17:17:23.915Z,66.25
2022-10-02T17:20:32.850Z,66.48
2022-10-02T17:23:54.008Z,66.57
2022-10-02T17:27:11.440Z,66.64
2022-10-02T17:30:24.203Z,67.12
2022-10-02T17:33:32.271Z,67.36
2022-10-02T17:36:36.313Z,67.60
2022-10-02T17:39:41.755Z,67.66
2022-10-02T17:42:47.183Z,67.85
2022-10-02T17:46:09.179Z,67.65
2022-10-02T17:49:19.763Z,67.97
2022-10-02T17:52:54.463Z,68.00
2022-10-02T17:56:18.347Z,68.02
2022-10-02T17:59:30.618Z,67.88
2022-10-02T18:02:42.003Z,67.75
2022-10-02T18:05:47.125Z,68.06
2022-10-02T18:09:03.581Z,67.97
2022-10-02T18:12:22.124Z,67.62
2022-10-02T18:15:33.797Z,67.79
2022-10-02T18:18:40.732Z,67.72
2022-10-02T18:22:03.017Z,67.76
2022-10-02T18:25:05.387Z,67.50
2022-10-02T18:28:32.584Z,67.43
2022-10-02T18:31:54.507Z,67.48
2022-10-02T18:35:15.579Z,67.45
2022-10-02T18:38:31.459Z,67.57
2022-10-02T18:41:33.480Z,67.55
2022-10-02T18:44:42.611Z,67.62
2022-10-02T18:47:53.575Z,67.80
2022-10-02T18:51:14.635Z,67.94
2022-10-02T18:54:29.053Z,67.95
2022-10-02T18:57:51.723Z,68.22
2022-10-02T19:00:56.861Z,68.17
2022-10-02T19:04:15.099Z,68.36
2022-10-02T19:07:27.887Z,68.40
2022-10-02T19:10:30.498Z,68.31
2022-10-02T19:13:38.240Z,68.39
2022-10-02T19:16:54.718Z,68.36
2022-10-02T19:19:57.832Z,68.53
2022-10-02T19:23:00.285Z,68.39
2022-10-02T19:26:04.900Z,68.37
2022-10-02T19:29:26.083Z,68.38
2022-10-02T19:32:30.673Z,68.50
2022-10-02T19:39:30.575Z,68.76
2022-10-02T19:42:37.845Z,68.74
2022-10-02T19:45:51.373Z,68.89
2022-10-02T19:49:10.515Z,68.68
2022-10-02T19:52:31.528Z,68.71
2022-10-02T19:55:38.219Z,68.74
2022-10-02T19:58:46.397Z,68.79
2022-10-02T20:01:50.629Z,68.85
2022-10-02T20:04:55.203Z,68.78
2022-10-02T20:08:06.868Z,68.85
2022-10-02T20:11:14.860Z,69.10
2022-10-02T20:14:20.521Z,69.14
2022-10-02T20:17:22.850Z,69.05
2022-10-02T20:20:24.900Z,69.07
2022-10-02T20:23:29.639Z,69.05
2022-10-02T20:26:34.014Z,69.23
2022-10-02T20:29:44.594Z,69.43
2022-10-02T20:32:51.405Z,69.51
2022-10-02T20:35:56.856Z,69.48
2022-10-02T20:39:02.108Z,69.58
2022-10-02T20:42:04.476Z,69.54
2022-10-02T20:45:10.705Z,69.49
2022-10-02T20:48:15.792Z,69.50
2022-10-02T20:51:45.010Z,69.60
2022-10-02T20:55:07.567Z,69.67
2022-10-02T20:58:10.997Z,69.75
2022-10-02T21:01:20.694Z,69.82
2022-10-02T21:04:38.083Z,69.99
2022-10-02T21:07:52.795Z,70.11
2022-10-02T21:11:13.609Z,70.29
2022-10-02T21:14:34.722Z,70.41
2022-10-02T21:17:54.768Z,70.42
2022-10-02T21:21:15.956Z,70.51
2022-10-02T21:24:24.173Z,70.56
2022-10-02T21:27:47.678Z,70.63
2022-10-02T21:30:52.585Z,70.79
2022-10-02T21:34:04.184Z,70.89
2022-10-02T21:37:17.762Z,70.87
2022-10-02T21:40:29.184Z,70.98
2022-10-02T21:43:37.159Z,71.00
2022-10-02T21:46:39.455Z,70.98
2022-10-02T21:49:41.876Z,70.96
2022-10-02T21:52:59.299Z,71.05
2022-10-02T21:56:19.388Z,71.10
2022-10-02T21:59:34.459Z,71.16
2022-10-02T22:02:39.569Z,71.26
2022-10-02T22:06:01.661Z,71.32
2022-10-02T22:09:06.743Z,71.69
2022-10-02T22:12:12.052Z,71.79
2022-10-02T22:15:16.759Z,71.97
2022-10-02T22:18:39.357Z,72.02
2022-10-02T22:21:41.649Z,72.14
2022-10-02T22:24:52.259Z,72.32
2022-10-02T22:27:57.545Z,72.50
2022-10-02T22:31:08.885Z,72.67
2022-10-02T22:34:11.094Z,72.82
2022-10-02T22:37:27.251Z,73.07
2022-10-02T22:40:31.095Z,73.17
2022-10-02T22:43:33.349Z,73.17
2022-10-02T22:46:41.375Z,73.19
2022-10-02T22:49:43.971Z,73.39
2022-10-02T22:52:47.306Z,73.54
2022-10-02T22:55:54.492Z,73.73
2022-10-02T22:59:01.636Z,73.68
2022-10-02T23:02:26.331Z,73.86
2022-10-02T23:05:31.387Z,74.01
2022-10-02T23:08:48.937Z,73.92
2022-10-02T23:12:00.150Z,74.05
2022-10-02T23:15:21.488Z,74.24
2022-10-02T23:18:37.376Z,74.19
2022-10-02T23:22:18.054Z,74.19
2022-10-02T23:25:32.731Z,74.34
2022-10-02T23:28:42.361Z,74.25
2022-10-02T23:31:54.208Z,74.27
2022-10-02T23:35:05.319Z,74.37
2022-10-02T23:38:23.810Z,74.37
2022-10-02T23:41:47.177Z,74.38
2022-10-02T23:44:55.783Z,74.35
2022-10-02T23:48:05.956Z,74.41
2022-10-02T23:51:17.264Z,74.53
2022-10-02T23:54:22.626Z,74.50
2022-10-02T23:57:39.743Z,74.56
